sensor_id;sensor_type;location;lat;lon;timestamp;P1;durP1;ratioP1;P2;durP2;ratioP2
80408;SDS011;69741;49.464;10.986;2023-04-29T00:00:13;4.57;;;1.70;;
80408;SDS011;69741;49.464;10.986;2023-04-29T00:02:39;4.75;;;1.90;;
80408;SDS011;69741;49.464;10.986;2023-04-29T00:05:04;5.97;;;1.83;;
80408;SDS011;69741;49.464;10.986;2023-04-29T00:07:30;4.82;;;2.13;;
80408;SDS011;69741;49.464;10.986;2023-04-29T00:09:56;6.78;;;2.35;;
80408;SDS011;69741;49.464;10.986;2023-04-29T00:12:21;4.63;;;2.00;;
80408;SDS011;69741;49.464;10.986;2023-04-29T00:14:46;4.37;;;1.80;;
80408;SDS011;69741;49.464;10.986;2023-04-29T00:17:11;4.43;;;1.95;;
80408;SDS011;69741;49.464;10.986;2023-04-29T00:19:37;4.37;;;1.97;;
80408;SDS011;69741;49.464;10.986;2023-04-29T00:22:02;6.50;;;2.70;;
80408;SDS011;69741;49.464;10.986;2023-04-29T00:24:27;5.93;;;1.83;;
80408;SDS011;69741;49.464;10.986;2023-04-29T00:26:52;4.07;;;1.73;;
80408;SDS011;69741;49.464;10.986;2023-04-29T00:29:17;4.07;;;1.70;;
80408;SDS011;69741;49.464;10.986;2023-04-29T00:31:43;3.67;;;1.43;;
80408;SDS011;69741;49.464;10.986;2023-04-29T00:34:08;5.53;;;1.98;;
80408;SDS011;69741;49.464;10.986;2023-04-29T00:36:33;6.05;;;2.33;;
80408;SDS011;69741;49.464;10.986;2023-04-29T00:38:58;4.53;;;1.70;;
80408;SDS011;69741;49.464;10.986;2023-04-29T00:41:24;5.03;;;2.00;;
80408;SDS011;69741;49.464;10.986;2023-04-29T00:43:49;5.55;;;1.80;;
80408;SDS011;69741;49.464;10.986;2023-04-29T00:46:16;4.07;;;2.30;;
80408;SDS011;69741;49.464;10.986;2023-04-29T00:48:41;4.33;;;1.50;;
80408;SDS011;69741;49.464;10.986;2023-04-29T00:51:06;6.93;;;2.28;;
80408;SDS011;69741;49.464;10.986;2023-04-29T00:53:32;5.18;;;1.80;;
80408;SDS011;69741;49.464;10.986;2023-04-29T00:55:57;4.23;;;1.73;;
80408;SDS011;69741;49.464;10.986;2023-04-29T00:58:24;5.20;;;1.70;;
80408;SDS011;69741;49.464;10.986;2023-04-29T01:00:56;4.25;;;1.80;;
80408;SDS011;69741;49.464;10.986;2023-04-29T01:03:22;4.25;;;1.73;;
80408;SDS011;69741;49.464;10.986;2023-04-29T01:05:47;4.55;;;1.50;;
80408;SDS011;69741;49.464;10.986;2023-04-29T01:09:02;3.72;;;1.45;;
80408;SDS011;69741;49.464;10.986;2023-04-29T01:11:07;3.53;;;1.52;;
80408;SDS011;69741;49.464;10.986;2023-04-29T01:16:07;4.43;;;1.85;;
80408;SDS011;69741;49.464;10.986;2023-04-29T01:18:39;4.25;;;1.67;;
80408;SDS011;69741;49.464;10.986;2023-04-29T01:21:05;5.63;;;2.10;;
80408;SDS011;69741;49.464;10.986;2023-04-29T01:23:30;3.97;;;1.73;;
80408;SDS011;69741;49.464;10.986;2023-04-29T01:25:56;4.25;;;1.83;;
80408;SDS011;69741;49.464;10.986;2023-04-29T01:28:42;4.22;;;1.80;;
80408;SDS011;69741;49.464;10.986;2023-04-29T01:31:24;4.65;;;1.80;;
80408;SDS011;69741;49.464;10.986;2023-04-29T01:37:17;5.68;;;1.77;;
80408;SDS011;69741;49.464;10.986;2023-04-29T01:42:29;4.70;;;1.85;;
80408;SDS011;69741;49.464;10.986;2023-04-29T01:44:57;4.28;;;1.75;;
80408;SDS011;69741;49.464;10.986;2023-04-29T01:47:24;3.92;;;1.60;;
80408;SDS011;69741;49.464;10.986;2023-04-29T01:49:50;4.32;;;1.55;;
80408;SDS011;69741;49.464;10.986;2023-04-29T01:52:16;5.07;;;1.77;;
80408;SDS011;69741;49.464;10.986;2023-04-29T01:54:41;4.43;;;1.77;;
80408;SDS011;69741;49.464;10.986;2023-04-29T01:57:06;4.72;;;2.00;;
80408;SDS011;69741;49.464;10.986;2023-04-29T01:59:31;4.10;;;1.77;;
80408;SDS011;69741;49.464;10.986;2023-04-29T02:01:56;4.93;;;2.23;;
80408;SDS011;69741;49.464;10.986;2023-04-29T02:04:23;4.68;;;1.90;;
80408;SDS011;69741;49.464;10.986;2023-04-29T02:06:48;4.40;;;1.77;;
80408;SDS011;69741;49.464;10.986;2023-04-29T02:09:14;4.83;;;1.90;;
80408;SDS011;69741;49.464;10.986;2023-04-29T02:11:39;5.43;;;2.00;;
80408;SDS011;69741;49.464;10.986;2023-04-29T02:14:04;4.80;;;1.60;;
80408;SDS011;69741;49.464;10.986;2023-04-29T02:16:30;5.65;;;1.95;;
80408;SDS011;69741;49.464;10.986;2023-04-29T02:18:55;6.47;;;2.42;;
80408;SDS011;69741;49.464;10.986;2023-04-29T02:21:20;4.17;;;1.70;;
80408;SDS011;69741;49.464;10.986;2023-04-29T02:23:45;5.90;;;2.07;;
80408;SDS011;69741;49.464;10.986;2023-04-29T02:26:11;5.53;;;2.15;;
80408;SDS011;69741;49.464;10.986;2023-04-29T02:28:37;5.20;;;2.05;;
80408;SDS011;69741;49.464;10.986;2023-04-29T02:31:03;5.10;;;2.10;;
80408;SDS011;69741;49.464;10.986;2023-04-29T02:33:28;4.50;;;2.22;;
80408;SDS011;69741;49.464;10.986;2023-04-29T02:35:53;5.37;;;2.37;;
80408;SDS011;69741;49.464;10.986;2023-04-29T02:38:18;5.80;;;2.47;;
80408;SDS011;69741;49.464;10.986;2023-04-29T02:40:44;7.73;;;2.47;;
80408;SDS011;69741;49.464;10.986;2023-04-29T02:43:10;4.50;;;2.00;;
80408;SDS011;69741;49.464;10.986;2023-04-29T02:45:36;4.78;;;1.80;;
80408;SDS011;69741;49.464;10.986;2023-04-29T02:48:01;6.88;;;2.15;;
80408;SDS011;69741;49.464;10.986;2023-04-29T02:50:27;4.77;;;1.83;;
80408;SDS011;69741;49.464;10.986;2023-04-29T02:52:52;5.72;;;2.47;;
80408;SDS011;69741;49.464;10.986;2023-04-29T02:55:17;5.13;;;2.33;;
80408;SDS011;69741;49.464;10.986;2023-04-29T02:57:43;5.13;;;1.70;;
80408;SDS011;69741;49.464;10.986;2023-04-29T03:00:08;4.47;;;2.15;;
80408;SDS011;69741;49.464;10.986;2023-04-29T03:02:33;5.50;;;2.03;;
80408;SDS011;69741;49.464;10.986;2023-04-29T03:04:59;4.63;;;2.15;;
80408;SDS011;69741;49.464;10.986;2023-04-29T03:07:24;7.97;;;2.92;;
80408;SDS011;69741;49.464;10.986;2023-04-29T03:09:49;4.93;;;1.97;;
80408;SDS011;69741;49.464;10.986;2023-04-29T03:12:14;4.80;;;2.40;;
80408;SDS011;69741;49.464;10.986;2023-04-29T03:14:40;6.22;;;3.05;;
80408;SDS011;69741;49.464;10.986;2023-04-29T03:17:06;6.20;;;2.28;;
80408;SDS011;69741;49.464;10.986;2023-04-29T03:19:31;5.33;;;2.30;;
80408;SDS011;69741;49.464;10.986;2023-04-29T03:21:56;6.90;;;2.87;;
80408;SDS011;69741;49.464;10.986;2023-04-29T03:24:21;5.82;;;2.60;;
80408;SDS011;69741;49.464;10.986;2023-04-29T03:26:46;5.15;;;2.47;;
80408;SDS011;69741;49.464;10.986;2023-04-29T03:29:11;6.23;;;2.60;;
80408;SDS011;69741;49.464;10.986;2023-04-29T03:31:37;5.40;;;2.53;;
80408;SDS011;69741;49.464;10.986;2023-04-29T03:34:02;5.37;;;2.40;;
80408;SDS011;69741;49.464;10.986;2023-04-29T03:36:28;5.25;;;2.30;;
80408;SDS011;69741;49.464;10.986;2023-04-29T03:38:53;5.13;;;2.45;;
80408;SDS011;69741;49.464;10.986;2023-04-29T03:41:18;5.87;;;2.57;;
80408;SDS011;69741;49.464;10.986;2023-04-29T03:43:43;4.83;;;2.17;;
80408;SDS011;69741;49.464;10.986;2023-04-29T03:46:09;4.90;;;2.23;;
80408;SDS011;69741;49.464;10.986;2023-04-29T03:48:34;4.90;;;2.00;;
80408;SDS011;69741;49.464;10.986;2023-04-29T03:51:00;7.57;;;2.83;;
80408;SDS011;69741;49.464;10.986;2023-04-29T03:53:26;6.53;;;2.38;;
80408;SDS011;69741;49.464;10.986;2023-04-29T03:55:51;6.37;;;2.50;;
80408;SDS011;69741;49.464;10.986;2023-04-29T03:58:16;6.80;;;2.78;;
80408;SDS011;69741;49.464;10.986;2023-04-29T04:00:41;6.90;;;2.85;;
80408;SDS011;69741;49.464;10.986;2023-04-29T04:03:06;6.43;;;3.10;;
80408;SDS011;69741;49.464;10.986;2023-04-29T04:05:32;5.75;;;2.78;;
80408;SDS011;69741;49.464;10.986;2023-04-29T04:07:58;6.10;;;2.97;;
80408;SDS011;69741;49.464;10.986;2023-04-29T04:10:24;6.05;;;3.42;;
80408;SDS011;69741;49.464;10.986;2023-04-29T04:12:49;5.85;;;2.95;;
80408;SDS011;69741;49.464;10.986;2023-04-29T04:15:15;6.93;;;3.90;;
80408;SDS011;69741;49.464;10.986;2023-04-29T04:17:41;7.68;;;4.03;;
80408;SDS011;69741;49.464;10.986;2023-04-29T04:20:06;6.33;;;3.13;;
80408;SDS011;69741;49.464;10.986;2023-04-29T04:22:31;5.45;;;2.55;;
80408;SDS011;69741;49.464;10.986;2023-04-29T04:24:56;5.87;;;2.53;;
80408;SDS011;69741;49.464;10.986;2023-04-29T04:27:22;6.45;;;2.65;;
80408;SDS011;69741;49.464;10.986;2023-04-29T04:29:47;7.50;;;2.95;;
80408;SDS011;69741;49.464;10.986;2023-04-29T04:32:12;6.07;;;3.10;;
80408;SDS011;69741;49.464;10.986;2023-04-29T04:34:38;6.57;;;2.83;;
80408;SDS011;69741;49.464;10.986;2023-04-29T04:37:03;6.80;;;3.25;;
80408;SDS011;69741;49.464;10.986;2023-04-29T04:39:28;6.32;;;3.10;;
80408;SDS011;69741;49.464;10.986;2023-04-29T04:41:53;6.33;;;2.47;;
80408;SDS011;69741;49.464;10.986;2023-04-29T04:44:19;7.80;;;3.10;;
80408;SDS011;69741;49.464;10.986;2023-04-29T04:46:44;8.25;;;3.20;;
80408;SDS011;69741;49.464;10.986;2023-04-29T04:49:10;7.68;;;2.63;;
80408;SDS011;69741;49.464;10.986;2023-04-29T04:51:35;6.57;;;2.75;;
80408;SDS011;69741;49.464;10.986;2023-04-29T04:54:00;7.07;;;3.17;;
80408;SDS011;69741;49.464;10.986;2023-04-29T04:56:25;6.78;;;3.25;;
80408;SDS011;69741;49.464;10.986;2023-04-29T04:58:50;6.83;;;3.13;;
80408;SDS011;69741;49.464;10.986;2023-04-29T05:01:15;7.13;;;3.40;;
80408;SDS011;69741;49.464;10.986;2023-04-29T05:03:41;7.03;;;3.53;;
80408;SDS011;69741;49.464;10.986;2023-04-29T05:06:06;6.47;;;2.95;;
80408;SDS011;69741;49.464;10.986;2023-04-29T05:08:31;6.87;;;3.23;;
80408;SDS011;69741;49.464;10.986;2023-04-29T05:10:56;6.47;;;3.57;;
80408;SDS011;69741;49.464;10.986;2023-04-29T05:13:22;6.40;;;3.05;;
80408;SDS011;69741;49.464;10.986;2023-04-29T05:15:49;6.60;;;2.55;;
80408;SDS011;69741;49.464;10.986;2023-04-29T05:18:14;6.78;;;2.95;;
80408;SDS011;69741;49.464;10.986;2023-04-29T05:20:39;5.43;;;2.72;;
80408;SDS011;69741;49.464;10.986;2023-04-29T05:23:04;6.60;;;2.90;;
80408;SDS011;69741;49.464;10.986;2023-04-29T05:25:30;6.37;;;2.97;;
80408;SDS011;69741;49.464;10.986;2023-04-29T05:27:55;7.22;;;3.30;;
80408;SDS011;69741;49.464;10.986;2023-04-29T05:30:20;7.75;;;3.33;;
80408;SDS011;69741;49.464;10.986;2023-04-29T05:32:46;6.82;;;3.40;;
80408;SDS011;69741;49.464;10.986;2023-04-29T05:35:12;5.40;;;2.58;;
80408;SDS011;69741;49.464;10.986;2023-04-29T05:37:37;6.53;;;2.60;;
80408;SDS011;69741;49.464;10.986;2023-04-29T05:40:03;7.53;;;2.70;;
80408;SDS011;69741;49.464;10.986;2023-04-29T05:42:28;21.40;;;4.43;;
80408;SDS011;69741;49.464;10.986;2023-04-29T05:44:53;13.87;;;3.33;;
80408;SDS011;69741;49.464;10.986;2023-04-29T05:47:18;21.30;;;4.23;;
80408;SDS011;69741;49.464;10.986;2023-04-29T05:49:43;6.85;;;4.18;;
80408;SDS011;69741;49.464;10.986;2023-04-29T05:52:09;6.87;;;2.90;;
80408;SDS011;69741;49.464;10.986;2023-04-29T05:54:34;13.80;;;4.00;;
80408;SDS011;69741;49.464;10.986;2023-04-29T05:56:59;25.08;;;6.43;;
80408;SDS011;69741;49.464;10.986;2023-04-29T05:59:30;11.23;;;3.55;;
80408;SDS011;69741;49.464;10.986;2023-04-29T06:01:56;11.30;;;3.33;;
80408;SDS011;69741;49.464;10.986;2023-04-29T06:04:21;17.70;;;3.50;;
80408;SDS011;69741;49.464;10.986;2023-04-29T06:06:47;9.27;;;2.88;;
80408;SDS011;69741;49.464;10.986;2023-04-29T06:09:12;6.63;;;3.00;;
80408;SDS011;69741;49.464;10.986;2023-04-29T06:11:39;6.72;;;2.92;;
80408;SDS011;69741;49.464;10.986;2023-04-29T06:14:04;5.77;;;2.53;;
80408;SDS011;69741;49.464;10.986;2023-04-29T06:16:29;7.50;;;2.87;;
80408;SDS011;69741;49.464;10.986;2023-04-29T06:18:54;6.90;;;3.10;;
80408;SDS011;69741;49.464;10.986;2023-04-29T06:21:20;7.82;;;3.05;;
80408;SDS011;69741;49.464;10.986;2023-04-29T06:23:45;6.70;;;3.13;;
80408;SDS011;69741;49.464;10.986;2023-04-29T06:26:11;7.77;;;2.87;;
80408;SDS011;69741;49.464;10.986;2023-04-29T06:28:37;6.85;;;3.22;;
80408;SDS011;69741;49.464;10.986;2023-04-29T06:31:02;8.18;;;3.95;;
80408;SDS011;69741;49.464;10.986;2023-04-29T06:33:27;8.07;;;3.57;;
80408;SDS011;69741;49.464;10.986;2023-04-29T06:35:54;9.65;;;3.13;;
80408;SDS011;69741;49.464;10.986;2023-04-29T06:38:19;9.67;;;3.73;;
80408;SDS011;69741;49.464;10.986;2023-04-29T06:40:44;8.40;;;3.83;;
80408;SDS011;69741;49.464;10.986;2023-04-29T06:43:10;10.17;;;4.23;;
80408;SDS011;69741;49.464;10.986;2023-04-29T06:45:35;8.97;;;3.87;;
80408;SDS011;69741;49.464;10.986;2023-04-29T06:48:00;8.67;;;4.20;;
80408;SDS011;69741;49.464;10.986;2023-04-29T06:50:25;10.00;;;3.77;;
80408;SDS011;69741;49.464;10.986;2023-04-29T06:52:50;7.97;;;3.30;;
80408;SDS011;69741;49.464;10.986;2023-04-29T06:55:15;7.68;;;3.53;;
80408;SDS011;69741;49.464;10.986;2023-04-29T06:57:41;7.67;;;3.30;;
80408;SDS011;69741;49.464;10.986;2023-04-29T07:00:06;9.10;;;3.57;;
80408;SDS011;69741;49.464;10.986;2023-04-29T07:02:31;6.88;;;3.15;;
80408;SDS011;69741;49.464;10.986;2023-04-29T07:04:56;7.77;;;3.77;;
80408;SDS011;69741;49.464;10.986;2023-04-29T07:07:22;11.65;;;3.30;;
80408;SDS011;69741;49.464;10.986;2023-04-29T07:09:47;8.02;;;2.92;;
80408;SDS011;69741;49.464;10.986;2023-04-29T07:12:15;7.78;;;3.30;;
80408;SDS011;69741;49.464;10.986;2023-04-29T07:14:40;8.17;;;3.63;;
80408;SDS011;69741;49.464;10.986;2023-04-29T07:17:06;12.35;;;3.95;;
80408;SDS011;69741;49.464;10.986;2023-04-29T07:19:31;8.87;;;3.60;;
80408;SDS011;69741;49.464;10.986;2023-04-29T07:21:56;6.73;;;3.30;;
80408;SDS011;69741;49.464;10.986;2023-04-29T07:24:22;8.70;;;3.40;;
80408;SDS011;69741;49.464;10.986;2023-04-29T07:26:48;7.82;;;3.63;;
80408;SDS011;69741;49.464;10.986;2023-04-29T07:29:13;12.80;;;3.15;;
80408;SDS011;69741;49.464;10.986;2023-04-29T07:31:38;7.20;;;3.60;;
80408;SDS011;69741;49.464;10.986;2023-04-29T07:34:03;5.97;;;2.63;;
80408;SDS011;69741;49.464;10.986;2023-04-29T07:36:29;6.90;;;3.40;;
80408;SDS011;69741;49.464;10.986;2023-04-29T07:38:55;5.72;;;2.35;;
80408;SDS011;69741;49.464;10.986;2023-04-29T07:41:20;6.23;;;2.80;;
80408;SDS011;69741;49.464;10.986;2023-04-29T07:43:46;7.88;;;3.65;;
80408;SDS011;69741;49.464;10.986;2023-04-29T07:46:11;9.63;;;3.50;;
80408;SDS011;69741;49.464;10.986;2023-04-29T07:48:37;9.00;;;3.65;;
80408;SDS011;69741;49.464;10.986;2023-04-29T07:51:03;7.63;;;3.53;;
80408;SDS011;69741;49.464;10.986;2023-04-29T07:53:28;6.75;;;2.75;;
80408;SDS011;69741;49.464;10.986;2023-04-29T07:55:53;10.02;;;3.05;;
80408;SDS011;69741;49.464;10.986;2023-04-29T07:58:18;7.55;;;3.13;;
80408;SDS011;69741;49.464;10.986;2023-04-29T08:00:43;7.30;;;3.40;;
80408;SDS011;69741;49.464;10.986;2023-04-29T08:03:09;9.27;;;4.07;;
80408;SDS011;69741;49.464;10.986;2023-04-29T08:05:34;8.10;;;3.20;;
80408;SDS011;69741;49.464;10.986;2023-04-29T08:08:00;7.93;;;4.25;;
80408;SDS011;69741;49.464;10.986;2023-04-29T08:10:25;6.90;;;3.55;;
80408;SDS011;69741;49.464;10.986;2023-04-29T08:12:51;7.80;;;3.90;;
80408;SDS011;69741;49.464;10.986;2023-04-29T08:15:16;7.50;;;3.67;;
80408;SDS011;69741;49.464;10.986;2023-04-29T08:17:42;9.85;;;3.75;;
80408;SDS011;69741;49.464;10.986;2023-04-29T08:20:07;8.77;;;4.17;;
80408;SDS011;69741;49.464;10.986;2023-04-29T08:22:33;10.07;;;4.65;;
80408;SDS011;69741;49.464;10.986;2023-04-29T08:24:58;8.48;;;4.13;;
80408;SDS011;69741;49.464;10.986;2023-04-29T08:27:24;7.17;;;3.93;;
80408;SDS011;69741;49.464;10.986;2023-04-29T08:29:49;9.63;;;4.75;;
80408;SDS011;69741;49.464;10.986;2023-04-29T08:32:15;7.78;;;4.03;;
80408;SDS011;69741;49.464;10.986;2023-04-29T08:34:40;8.57;;;4.32;;
80408;SDS011;69741;49.464;10.986;2023-04-29T08:37:05;9.27;;;4.68;;
80408;SDS011;69741;49.464;10.986;2023-04-29T08:39:31;7.27;;;3.90;;
80408;SDS011;69741;49.464;10.986;2023-04-29T08:41:56;7.65;;;4.00;;
80408;SDS011;69741;49.464;10.986;2023-04-29T08:44:22;8.13;;;4.03;;
80408;SDS011;69741;49.464;10.986;2023-04-29T08:46:47;7.50;;;3.25;;
80408;SDS011;69741;49.464;10.986;2023-04-29T08:49:13;8.70;;;4.20;;
80408;SDS011;69741;49.464;10.986;2023-04-29T08:51:38;7.20;;;3.63;;
80408;SDS011;69741;49.464;10.986;2023-04-29T08:54:03;6.70;;;3.43;;
80408;SDS011;69741;49.464;10.986;2023-04-29T08:56:29;7.22;;;3.40;;
80408;SDS011;69741;49.464;10.986;2023-04-29T08:58:54;6.72;;;3.20;;
80408;SDS011;69741;49.464;10.986;2023-04-29T09:01:22;6.03;;;3.05;;
80408;SDS011;69741;49.464;10.986;2023-04-29T09:06:19;6.63;;;3.70;;
80408;SDS011;69741;49.464;10.986;2023-04-29T09:08:46;7.10;;;3.67;;
80408;SDS011;69741;49.464;10.986;2023-04-29T09:11:11;9.07;;;4.05;;
80408;SDS011;69741;49.464;10.986;2023-04-29T09:13:36;6.53;;;3.37;;
80408;SDS011;69741;49.464;10.986;2023-04-29T09:16:01;7.20;;;3.83;;
80408;SDS011;69741;49.464;10.986;2023-04-29T09:18:46;6.53;;;3.17;;
80408;SDS011;69741;49.464;10.986;2023-04-29T09:21:18;6.15;;;3.53;;
80408;SDS011;69741;49.464;10.986;2023-04-29T09:23:44;7.10;;;3.88;;
80408;SDS011;69741;49.464;10.986;2023-04-29T09:26:10;7.18;;;3.85;;
80408;SDS011;69741;49.464;10.986;2023-04-29T09:28:35;8.82;;;5.03;;
80408;SDS011;69741;49.464;10.986;2023-04-29T09:31:01;7.80;;;4.37;;
80408;SDS011;69741;49.464;10.986;2023-04-29T09:33:30;8.75;;;3.85;;
80408;SDS011;69741;49.464;10.986;2023-04-29T09:35:55;9.55;;;4.68;;
80408;SDS011;69741;49.464;10.986;2023-04-29T09:38:20;8.77;;;4.70;;
80408;SDS011;69741;49.464;10.986;2023-04-29T09:40:46;7.68;;;3.60;;
80408;SDS011;69741;49.464;10.986;2023-04-29T09:43:12;7.50;;;4.13;;
80408;SDS011;69741;49.464;10.986;2023-04-29T09:45:39;10.13;;;4.05;;
80408;SDS011;69741;49.464;10.986;2023-04-29T09:48:06;7.25;;;3.50;;
80408;SDS011;69741;49.464;10.986;2023-04-29T09:50:33;6.07;;;3.03;;
80408;SDS011;69741;49.464;10.986;2023-04-29T09:53:01;7.72;;;3.80;;
80408;SDS011;69741;49.464;10.986;2023-04-29T09:55:26;6.75;;;3.25;;
80408;SDS011;69741;49.464;10.986;2023-04-29T09:57:52;10.05;;;3.80;;
80408;SDS011;69741;49.464;10.986;2023-04-29T10:00:17;6.82;;;3.42;;
80408;SDS011;69741;49.464;10.986;2023-04-29T10:02:44;6.73;;;3.20;;
80408;SDS011;69741;49.464;10.986;2023-04-29T10:05:11;6.60;;;3.40;;
80408;SDS011;69741;49.464;10.986;2023-04-29T10:07:37;6.97;;;3.13;;
80408;SDS011;69741;49.464;10.986;2023-04-29T10:10:03;6.75;;;3.28;;
80408;SDS011;69741;49.464;10.986;2023-04-29T10:12:29;8.50;;;3.72;;
80408;SDS011;69741;49.464;10.986;2023-04-29T10:15:02;6.28;;;2.97;;
80408;SDS011;69741;49.464;10.986;2023-04-29T10:17:54;6.28;;;3.40;;
80408;SDS011;69741;49.464;10.986;2023-04-29T10:20:20;7.50;;;3.55;;
80408;SDS011;69741;49.464;10.986;2023-04-29T10:25:11;8.93;;;3.25;;
80408;SDS011;69741;49.464;10.986;2023-04-29T10:27:38;6.90;;;3.38;;
80408;SDS011;69741;49.464;10.986;2023-04-29T10:30:07;7.18;;;3.28;;
80408;SDS011;69741;49.464;10.986;2023-04-29T10:32:33;7.18;;;3.47;;
80408;SDS011;69741;49.464;10.986;2023-04-29T10:34:58;5.93;;;3.10;;
80408;SDS011;69741;49.464;10.986;2023-04-29T10:37:24;7.07;;;3.33;;
80408;SDS011;69741;49.464;10.986;2023-04-29T10:39:54;6.70;;;3.50;;
80408;SDS011;69741;49.464;10.986;2023-04-29T10:42:29;6.65;;;3.10;;
80408;SDS011;69741;49.464;10.986;2023-04-29T10:47:40;7.80;;;2.78;;
80408;SDS011;69741;49.464;10.986;2023-04-29T10:50:05;6.22;;;2.85;;
80408;SDS011;69741;49.464;10.986;2023-04-29T10:52:34;8.77;;;3.45;;
80408;SDS011;69741;49.464;10.986;2023-04-29T10:55:14;7.47;;;3.85;;
80408;SDS011;69741;49.464;10.986;2023-04-29T10:57:40;7.55;;;3.63;;
80408;SDS011;69741;49.464;10.986;2023-04-29T11:00:06;7.10;;;2.88;;
80408;SDS011;69741;49.464;10.986;2023-04-29T11:02:42;7.10;;;2.75;;
80408;SDS011;69741;49.464;10.986;2023-04-29T11:05:08;10.30;;;3.87;;
80408;SDS011;69741;49.464;10.986;2023-04-29T11:07:34;6.38;;;3.15;;
80408;SDS011;69741;49.464;10.986;2023-04-29T11:10:00;6.82;;;3.20;;
80408;SDS011;69741;49.464;10.986;2023-04-29T11:12:25;7.97;;;3.25;;
80408;SDS011;69741;49.464;10.986;2023-04-29T11:14:51;7.13;;;3.40;;
80408;SDS011;69741;49.464;10.986;2023-04-29T11:17:16;7.47;;;3.00;;
80408;SDS011;69741;49.464;10.986;2023-04-29T11:19:44;7.30;;;3.58;;
80408;SDS011;69741;49.464;10.986;2023-04-29T11:22:14;7.03;;;3.35;;
80408;SDS011;69741;49.464;10.986;2023-04-29T11:27:20;6.90;;;3.63;;
80408;SDS011;69741;49.464;10.986;2023-04-29T11:29:49;7.15;;;3.50;;
80408;SDS011;69741;49.464;10.986;2023-04-29T11:32:14;6.32;;;3.20;;
80408;SDS011;69741;49.464;10.986;2023-04-29T11:34:39;7.07;;;3.47;;
80408;SDS011;69741;49.464;10.986;2023-04-29T11:37:05;7.23;;;3.27;;
80408;SDS011;69741;49.464;10.986;2023-04-29T11:39:33;7.53;;;3.37;;
80408;SDS011;69741;49.464;10.986;2023-04-29T11:42:05;7.30;;;3.28;;
80408;SDS011;69741;49.464;10.986;2023-04-29T11:44:34;7.70;;;3.30;;
80408;SDS011;69741;49.464;10.986;2023-04-29T11:47:05;6.40;;;2.90;;
80408;SDS011;69741;49.464;10.986;2023-04-29T11:49:33;7.65;;;2.58;;
80408;SDS011;69741;49.464;10.986;2023-04-29T11:51:59;6.25;;;2.97;;
80408;SDS011;69741;49.464;10.986;2023-04-29T11:54:25;6.10;;;3.08;;
80408;SDS011;69741;49.464;10.986;2023-04-29T11:56:52;6.93;;;2.92;;
80408;SDS011;69741;49.464;10.986;2023-04-29T11:59:18;6.00;;;2.40;;
80408;SDS011;69741;49.464;10.986;2023-04-29T12:01:43;6.18;;;2.38;;
80408;SDS011;69741;49.464;10.986;2023-04-29T12:04:08;5.47;;;2.37;;
80408;SDS011;69741;49.464;10.986;2023-04-29T12:06:34;6.38;;;2.92;;
80408;SDS011;69741;49.464;10.986;2023-04-29T12:08:59;5.17;;;2.13;;
80408;SDS011;69741;49.464;10.986;2023-04-29T12:11:25;6.75;;;2.05;;
80408;SDS011;69741;49.464;10.986;2023-04-29T12:13:50;5.28;;;2.45;;
80408;SDS011;69741;49.464;10.986;2023-04-29T12:16:15;6.10;;;2.55;;
80408;SDS011;69741;49.464;10.986;2023-04-29T12:18:41;4.93;;;2.10;;
80408;SDS011;69741;49.464;10.986;2023-04-29T12:21:07;5.65;;;2.05;;
80408;SDS011;69741;49.464;10.986;2023-04-29T12:23:32;5.67;;;2.03;;
80408;SDS011;69741;49.464;10.986;2023-04-29T12:25:59;5.95;;;2.40;;
80408;SDS011;69741;49.464;10.986;2023-04-29T12:28:25;5.53;;;2.63;;
80408;SDS011;69741;49.464;10.986;2023-04-29T12:30:51;5.00;;;1.90;;
80408;SDS011;69741;49.464;10.986;2023-04-29T12:33:22;4.57;;;2.03;;
80408;SDS011;69741;49.464;10.986;2023-04-29T12:35:50;4.90;;;2.03;;
80408;SDS011;69741;49.464;10.986;2023-04-29T12:38:26;5.47;;;1.90;;
80408;SDS011;69741;49.464;10.986;2023-04-29T12:40:52;5.93;;;2.40;;
80408;SDS011;69741;49.464;10.986;2023-04-29T12:43:17;5.35;;;2.13;;
80408;SDS011;69741;49.464;10.986;2023-04-29T12:45:43;5.03;;;2.33;;
80408;SDS011;69741;49.464;10.986;2023-04-29T12:48:08;9.40;;;2.47;;
80408;SDS011;69741;49.464;10.986;2023-04-29T12:50:37;4.85;;;1.83;;
80408;SDS011;69741;49.464;10.986;2023-04-29T12:53:03;4.38;;;1.73;;
80408;SDS011;69741;49.464;10.986;2023-04-29T12:55:30;5.05;;;2.28;;
80408;SDS011;69741;49.464;10.986;2023-04-29T12:57:55;5.22;;;1.95;;
80408;SDS011;69741;49.464;10.986;2023-04-29T13:00:20;5.00;;;1.70;;
80408;SDS011;69741;49.464;10.986;2023-04-29T13:02:46;4.23;;;1.50;;
80408;SDS011;69741;49.464;10.986;2023-04-29T13:05:11;5.63;;;2.05;;
80408;SDS011;69741;49.464;10.986;2023-04-29T13:07:37;4.33;;;1.63;;
80408;SDS011;69741;49.464;10.986;2023-04-29T13:10:02;4.72;;;2.28;;
80408;SDS011;69741;49.464;10.986;2023-04-29T13:12:30;4.45;;;1.90;;
80408;SDS011;69741;49.464;10.986;2023-04-29T13:14:55;4.20;;;1.88;;
80408;SDS011;69741;49.464;10.986;2023-04-29T13:17:20;4.67;;;1.93;;
80408;SDS011;69741;49.464;10.986;2023-04-29T13:19:45;6.22;;;1.80;;
80408;SDS011;69741;49.464;10.986;2023-04-29T13:22:10;4.97;;;2.30;;
80408;SDS011;69741;49.464;10.986;2023-04-29T13:24:36;5.43;;;2.42;;
80408;SDS011;69741;49.464;10.986;2023-04-29T13:27:01;4.90;;;1.77;;
80408;SDS011;69741;49.464;10.986;2023-04-29T13:29:27;4.68;;;2.00;;
80408;SDS011;69741;49.464;10.986;2023-04-29T13:31:53;4.72;;;1.77;;
80408;SDS011;69741;49.464;10.986;2023-04-29T13:34:18;3.85;;;1.50;;
80408;SDS011;69741;49.464;10.986;2023-04-29T13:36:44;5.65;;;2.13;;
80408;SDS011;69741;49.464;10.986;2023-04-29T13:39:09;4.53;;;2.10;;
80408;SDS011;69741;49.464;10.986;2023-04-29T13:41:34;5.20;;;1.77;;
80408;SDS011;69741;49.464;10.986;2023-04-29T13:44:00;4.47;;;1.70;;
80408;SDS011;69741;49.464;10.986;2023-04-29T13:46:25;3.85;;;1.33;;
80408;SDS011;69741;49.464;10.986;2023-04-29T13:48:51;4.25;;;1.65;;
80408;SDS011;69741;49.464;10.986;2023-04-29T13:51:16;4.07;;;1.50;;
80408;SDS011;69741;49.464;10.986;2023-04-29T13:53:41;4.65;;;2.05;;
80408;SDS011;69741;49.464;10.986;2023-04-29T13:56:07;3.75;;;1.63;;
80408;SDS011;69741;49.464;10.986;2023-04-29T13:58:32;3.70;;;1.70;;
80408;SDS011;69741;49.464;10.986;2023-04-29T14:00:57;3.90;;;1.40;;
80408;SDS011;69741;49.464;10.986;2023-04-29T14:03:23;6.32;;;2.08;;
80408;SDS011;69741;49.464;10.986;2023-04-29T14:05:48;5.60;;;2.07;;
80408;SDS011;69741;49.464;10.986;2023-04-29T14:08:13;5.93;;;1.60;;
80408;SDS011;69741;49.464;10.986;2023-04-29T14:10:38;4.07;;;1.70;;
80408;SDS011;69741;49.464;10.986;2023-04-29T14:13:03;3.57;;;1.37;;
80408;SDS011;69741;49.464;10.986;2023-04-29T14:15:29;5.72;;;1.88;;
80408;SDS011;69741;49.464;10.986;2023-04-29T14:17:54;3.97;;;1.87;;
80408;SDS011;69741;49.464;10.986;2023-04-29T14:20:19;4.35;;;1.33;;
80408;SDS011;69741;49.464;10.986;2023-04-29T14:22:44;3.72;;;1.20;;
80408;SDS011;69741;49.464;10.986;2023-04-29T14:25:10;4.10;;;1.85;;
80408;SDS011;69741;49.464;10.986;2023-04-29T14:27:36;4.22;;;1.52;;
80408;SDS011;69741;49.464;10.986;2023-04-29T14:30:01;4.17;;;1.67;;
80408;SDS011;69741;49.464;10.986;2023-04-29T14:32:28;5.93;;;1.73;;
80408;SDS011;69741;49.464;10.986;2023-04-29T14:34:53;4.60;;;1.23;;
80408;SDS011;69741;49.464;10.986;2023-04-29T14:37:18;4.20;;;1.50;;
80408;SDS011;69741;49.464;10.986;2023-04-29T14:39:44;4.28;;;1.38;;
80408;SDS011;69741;49.464;10.986;2023-04-29T14:42:09;4.63;;;1.65;;
80408;SDS011;69741;49.464;10.986;2023-04-29T14:44:34;4.43;;;1.40;;